sensor_id;sensor_type;location;lat;lon;timestamp;P1;durP1;ratioP1;P2;durP2;ratioP2
10586;SDS011;5341;47.606;7.576;2023-01-01T00:02:36;140.52;;;109.43;;
10586;SDS011;5341;47.606;7.576;2023-01-01T00:05:10;132.23;;;109.45;;
10586;SDS011;5341;47.606;7.576;2023-01-01T00:07:54;127.55;;;107.43;;
10586;SDS011;5341;47.606;7.576;2023-01-01T00:10:25;140.63;;;112.18;;
10586;SDS011;5341;47.606;7.576;2023-01-01T00:13:03;138.00;;;111.97;;
10586;SDS011;5341;47.606;7.576;2023-01-01T00:15:34;129.52;;;109.07;;
10586;SDS011;5341;47.606;7.576;2023-01-01T00:18:04;127.97;;;107.95;;
10586;SDS011;5341;47.606;7.576;2023-01-01T00:20:32;130.90;;;109.55;;
10586;SDS011;5341;47.606;7.576;2023-01-01T00:23:03;129.52;;;110.35;;
10586;SDS011;5341;47.606;7.576;2023-01-01T00:25:30;129.80;;;109.05;;
10586;SDS011;5341;47.606;7.576;2023-01-01T00:27:58;134.07;;;111.32;;
10586;SDS011;5341;47.606;7.576;2023-01-01T00:30:26;134.35;;;110.50;;
10586;SDS011;5341;47.606;7.576;2023-01-01T00:32:55;131.10;;;112.80;;
10586;SDS011;5341;47.606;7.576;2023-01-01T00:35:23;136.57;;;114.82;;
10586;SDS011;5341;47.606;7.576;2023-01-01T00:37:51;141.32;;;118.22;;
10586;SDS011;5341;47.606;7.576;2023-01-01T00:40:22;142.00;;;117.43;;
10586;SDS011;5341;47.606;7.576;2023-01-01T00:42:50;148.18;;;122.70;;
10586;SDS011;5341;47.606;7.576;2023-01-01T00:45:20;149.27;;;129.93;;
10586;SDS011;5341;47.606;7.576;2023-01-01T00:47:48;158.32;;;134.38;;
10586;SDS011;5341;47.606;7.576;2023-01-01T00:50:21;166.05;;;137.52;;
10586;SDS011;5341;47.606;7.576;2023-01-01T00:52:52;172.60;;;144.63;;
10586;SDS011;5341;47.606;7.576;2023-01-01T00:55:27;176.07;;;145.80;;
10586;SDS011;5341;47.606;7.576;2023-01-01T00:57:56;177.95;;;148.93;;
10586;SDS011;5341;47.606;7.576;2023-01-01T01:00:27;186.40;;;154.77;;
10586;SDS011;5341;47.606;7.576;2023-01-01T01:02:56;188.32;;;153.95;;
10586;SDS011;5341;47.606;7.576;2023-01-01T01:05:25;190.65;;;159.95;;
10586;SDS011;5341;47.606;7.576;2023-01-01T01:07:53;191.88;;;160.07;;
10586;SDS011;5341;47.606;7.576;2023-01-01T01:10:21;190.88;;;157.68;;
10586;SDS011;5341;47.606;7.576;2023-01-01T01:12:50;188.00;;;155.93;;
10586;SDS011;5341;47.606;7.576;2023-01-01T01:15:19;189.93;;;156.38;;
10586;SDS011;5341;47.606;7.576;2023-01-01T01:17:46;184.45;;;151.68;;
10586;SDS011;5341;47.606;7.576;2023-01-01T01:20:14;180.20;;;148.80;;
10586;SDS011;5341;47.606;7.576;2023-01-01T01:22:43;182.35;;;148.55;;
10586;SDS011;5341;47.606;7.576;2023-01-01T01:25:11;174.15;;;144.93;;
10586;SDS011;5341;47.606;7.576;2023-01-01T01:27:38;167.43;;;139.77;;
10586;SDS011;5341;47.606;7.576;2023-01-01T01:30:06;169.80;;;138.07;;
10586;SDS011;5341;47.606;7.576;2023-01-01T01:32:34;167.93;;;138.93;;
10586;SDS011;5341;47.606;7.576;2023-01-01T01:35:02;169.73;;;139.25;;
10586;SDS011;5341;47.606;7.576;2023-01-01T01:37:30;158.55;;;133.18;;
10586;SDS011;5341;47.606;7.576;2023-01-01T01:39:59;161.07;;;134.05;;
10586;SDS011;5341;47.606;7.576;2023-01-01T01:42:27;154.35;;;130.50;;
10586;SDS011;5341;47.606;7.576;2023-01-01T01:44:56;154.70;;;125.65;;
10586;SDS011;5341;47.606;7.576;2023-01-01T01:47:32;150.15;;;126.47;;
10586;SDS011;5341;47.606;7.576;2023-01-01T01:50:05;151.52;;;124.07;;
10586;SDS011;5341;47.606;7.576;2023-01-01T01:52:38;153.82;;;122.97;;
10586;SDS011;5341;47.606;7.576;2023-01-01T01:55:09;140.60;;;117.93;;
10586;SDS011;5341;47.606;7.576;2023-01-01T01:57:37;150.02;;;117.63;;
10586;SDS011;5341;47.606;7.576;2023-01-01T02:00:07;144.75;;;117.95;;
10586;SDS011;5341;47.606;7.576;2023-01-01T02:02:36;144.48;;;116.75;;
10586;SDS011;5341;47.606;7.576;2023-01-01T02:05:08;137.32;;;114.78;;
10586;SDS011;5341;47.606;7.576;2023-01-01T02:07:36;136.82;;;110.10;;
10586;SDS011;5341;47.606;7.576;2023-01-01T02:10:05;133.13;;;106.05;;
10586;SDS011;5341;47.606;7.576;2023-01-01T02:12:34;129.30;;;106.65;;
10586;SDS011;5341;47.606;7.576;2023-01-01T02:15:02;123.88;;;102.68;;
10586;SDS011;5341;47.606;7.576;2023-01-01T02:17:30;119.45;;;99.43;;
10586;SDS011;5341;47.606;7.576;2023-01-01T02:20:18;119.07;;;95.35;;
10586;SDS011;5341;47.606;7.576;2023-01-01T02:23:01;115.97;;;92.75;;
10586;SDS011;5341;47.606;7.576;2023-01-01T02:25:57;115.80;;;92.68;;
10586;SDS011;5341;47.606;7.576;2023-01-01T02:28:46;106.25;;;89.05;;
10586;SDS011;5341;47.606;7.576;2023-01-01T02:31:19;110.60;;;89.90;;
10586;SDS011;5341;47.606;7.576;2023-01-01T02:33:53;104.63;;;86.35;;
10586;SDS011;5341;47.606;7.576;2023-01-01T02:36:24;104.57;;;88.20;;
10586;SDS011;5341;47.606;7.576;2023-01-01T02:38:54;96.85;;;83.45;;
10586;SDS011;5341;47.606;7.576;2023-01-01T02:41:26;101.95;;;83.18;;
10586;SDS011;5341;47.606;7.576;2023-01-01T02:43:58;93.18;;;78.10;;
10586;SDS011;5341;47.606;7.576;2023-01-01T02:46:29;96.72;;;79.80;;
10586;SDS011;5341;47.606;7.576;2023-01-01T02:48:58;96.57;;;78.32;;
10586;SDS011;5341;47.606;7.576;2023-01-01T02:51:27;98.90;;;77.90;;
10586;SDS011;5341;47.606;7.576;2023-01-01T02:54:04;95.00;;;77.18;;
10586;SDS011;5341;47.606;7.576;2023-01-01T02:56:40;90.68;;;77.30;;
10586;SDS011;5341;47.606;7.576;2023-01-01T02:59:20;92.57;;;77.00;;
10586;SDS011;5341;47.606;7.576;2023-01-01T03:02:11;96.40;;;77.65;;
10586;SDS011;5341;47.606;7.576;2023-01-01T03:04:50;87.22;;;75.47;;
10586;SDS011;5341;47.606;7.576;2023-01-01T03:07:31;93.60;;;78.90;;
10586;SDS011;5341;47.606;7.576;2023-01-01T03:10:09;92.82;;;77.50;;
10586;SDS011;5341;47.606;7.576;2023-01-01T03:12:42;93.00;;;74.35;;
10586;SDS011;5341;47.606;7.576;2023-01-01T03:15:18;95.55;;;75.70;;
10586;SDS011;5341;47.606;7.576;2023-01-01T03:17:54;91.65;;;73.90;;
10586;SDS011;5341;47.606;7.576;2023-01-01T03:20:30;89.50;;;74.03;;
10586;SDS011;5341;47.606;7.576;2023-01-01T03:23:02;93.35;;;76.18;;
10586;SDS011;5341;47.606;7.576;2023-01-01T03:25:33;85.15;;;72.70;;
10586;SDS011;5341;47.606;7.576;2023-01-01T03:28:06;93.65;;;75.60;;
10586;SDS011;5341;47.606;7.576;2023-01-01T03:30:39;90.60;;;75.60;;
10586;SDS011;5341;47.606;7.576;2023-01-01T03:33:12;90.35;;;73.63;;
10586;SDS011;5341;47.606;7.576;2023-01-01T03:35:45;88.53;;;74.05;;
10586;SDS011;5341;47.606;7.576;2023-01-01T03:38:17;89.25;;;74.10;;
10586;SDS011;5341;47.606;7.576;2023-01-01T03:40:50;86.53;;;73.55;;
10586;SDS011;5341;47.606;7.576;2023-01-01T03:43:28;84.78;;;70.38;;
10586;SDS011;5341;47.606;7.576;2023-01-01T03:46:08;88.97;;;73.80;;
10586;SDS011;5341;47.606;7.576;2023-01-01T03:48:39;87.43;;;70.28;;
10586;SDS011;5341;47.606;7.576;2023-01-01T03:51:25;86.38;;;70.00;;
10586;SDS011;5341;47.606;7.576;2023-01-01T03:54:05;83.05;;;69.18;;
10586;SDS011;5341;47.606;7.576;2023-01-01T03:56:38;86.00;;;69.93;;
10586;SDS011;5341;47.606;7.576;2023-01-01T03:59:14;90.93;;;73.20;;
10586;SDS011;5341;47.606;7.576;2023-01-01T04:01:48;86.13;;;71.00;;
10586;SDS011;5341;47.606;7.576;2023-01-01T04:04:20;86.93;;;74.13;;
10586;SDS011;5341;47.606;7.576;2023-01-01T04:06:57;89.22;;;73.18;;
10586;SDS011;5341;47.606;7.576;2023-01-01T04:09:28;95.18;;;78.35;;
10586;SDS011;5341;47.606;7.576;2023-01-01T04:12:00;97.63;;;79.72;;
10586;SDS011;5341;47.606;7.576;2023-01-01T04:14:31;95.47;;;77.90;;
10586;SDS011;5341;47.606;7.576;2023-01-01T04:17:06;93.22;;;76.60;;
10586;SDS011;5341;47.606;7.576;2023-01-01T04:19:38;91.97;;;75.88;;
10586;SDS011;5341;47.606;7.576;2023-01-01T04:22:10;90.93;;;75.57;;
10586;SDS011;5341;47.606;7.576;2023-01-01T04:24:38;90.45;;;75.82;;
10586;SDS011;5341;47.606;7.576;2023-01-01T04:27:07;92.22;;;75.60;;
10586;SDS011;5341;47.606;7.576;2023-01-01T04:29:36;91.60;;;77.90;;
10586;SDS011;5341;47.606;7.576;2023-01-01T04:32:13;88.47;;;75.13;;
10586;SDS011;5341;47.606;7.576;2023-01-01T04:34:43;96.47;;;77.00;;
10586;SDS011;5341;47.606;7.576;2023-01-01T04:37:12;91.22;;;75.07;;
10586;SDS011;5341;47.606;7.576;2023-01-01T04:39:40;87.72;;;74.47;;
10586;SDS011;5341;47.606;7.576;2023-01-01T04:42:08;86.38;;;71.95;;
10586;SDS011;5341;47.606;7.576;2023-01-01T04:44:36;86.05;;;73.85;;
10586;SDS011;5341;47.606;7.576;2023-01-01T04:47:04;91.18;;;75.35;;
10586;SDS011;5341;47.606;7.576;2023-01-01T04:49:34;87.38;;;72.10;;
10586;SDS011;5341;47.606;7.576;2023-01-01T04:52:04;85.60;;;72.60;;
10586;SDS011;5341;47.606;7.576;2023-01-01T04:54:32;87.65;;;72.00;;
10586;SDS011;5341;47.606;7.576;2023-01-01T04:57:00;84.70;;;70.93;;
10586;SDS011;5341;47.606;7.576;2023-01-01T04:59:28;88.88;;;71.30;;
10586;SDS011;5341;47.606;7.576;2023-01-01T05:01:56;86.47;;;72.15;;
10586;SDS011;5341;47.606;7.576;2023-01-01T05:04:25;83.47;;;69.55;;
10586;SDS011;5341;47.606;7.576;2023-01-01T05:06:55;80.93;;;69.97;;
10586;SDS011;5341;47.606;7.576;2023-01-01T05:09:22;80.10;;;70.38;;
10586;SDS011;5341;47.606;7.576;2023-01-01T05:11:50;82.75;;;71.18;;
10586;SDS011;5341;47.606;7.576;2023-01-01T05:14:19;84.35;;;71.05;;
10586;SDS011;5341;47.606;7.576;2023-01-01T05:16:47;84.55;;;70.82;;
10586;SDS011;5341;47.606;7.576;2023-01-01T05:19:15;82.20;;;69.32;;
10586;SDS011;5341;47.606;7.576;2023-01-01T05:21:42;80.80;;;67.72;;
10586;SDS011;5341;47.606;7.576;2023-01-01T05:24:12;79.75;;;66.53;;
10586;SDS011;5341;47.606;7.576;2023-01-01T05:26:41;77.80;;;64.72;;
10586;SDS011;5341;47.606;7.576;2023-01-01T05:29:09;73.88;;;63.58;;
10586;SDS011;5341;47.606;7.576;2023-01-01T05:31:37;76.68;;;64.57;;
10586;SDS011;5341;47.606;7.576;2023-01-01T05:34:08;75.68;;;61.50;;
10586;SDS011;5341;47.606;7.576;2023-01-01T05:36:36;73.07;;;59.65;;
10586;SDS011;5341;47.606;7.576;2023-01-01T05:39:05;72.93;;;60.80;;
10586;SDS011;5341;47.606;7.576;2023-01-01T05:41:41;71.18;;;58.80;;
10586;SDS011;5341;47.606;7.576;2023-01-01T05:44:09;67.65;;;56.55;;
10586;SDS011;5341;47.606;7.576;2023-01-01T05:46:37;67.15;;;55.50;;
10586;SDS011;5341;47.606;7.576;2023-01-01T05:49:09;67.10;;;55.17;;
10586;SDS011;5341;47.606;7.576;2023-01-01T05:51:37;64.90;;;52.95;;
10586;SDS011;5341;47.606;7.576;2023-01-01T05:54:05;66.35;;;53.70;;
10586;SDS011;5341;47.606;7.576;2023-01-01T05:56:34;66.13;;;56.22;;
10586;SDS011;5341;47.606;7.576;2023-01-01T05:59:04;65.10;;;54.88;;
10586;SDS011;5341;47.606;7.576;2023-01-01T06:01:31;63.30;;;53.85;;
10586;SDS011;5341;47.606;7.576;2023-01-01T06:04:06;64.95;;;53.75;;
10586;SDS011;5341;47.606;7.576;2023-01-01T06:06:34;64.32;;;53.15;;
10586;SDS011;5341;47.606;7.576;2023-01-01T06:09:03;65.38;;;54.63;;
10586;SDS011;5341;47.606;7.576;2023-01-01T06:11:31;64.70;;;52.72;;
10586;SDS011;5341;47.606;7.576;2023-01-01T06:14:00;60.75;;;52.30;;
10586;SDS011;5341;47.606;7.576;2023-01-01T06:16:32;60.90;;;51.13;;
10586;SDS011;5341;47.606;7.576;2023-01-01T06:19:00;63.75;;;52.03;;
10586;SDS011;5341;47.606;7.576;2023-01-01T06:21:28;64.65;;;52.10;;
10586;SDS011;5341;47.606;7.576;2023-01-01T06:23:56;62.22;;;52.15;;
10586;SDS011;5341;47.606;7.576;2023-01-01T06:26:26;61.13;;;50.92;;
10586;SDS011;5341;47.606;7.576;2023-01-01T06:28:56;60.45;;;50.53;;
10586;SDS011;5341;47.606;7.576;2023-01-01T06:31:27;59.95;;;51.33;;
10586;SDS011;5341;47.606;7.576;2023-01-01T06:33:58;73.57;;;51.45;;
10586;SDS011;5341;47.606;7.576;2023-01-01T06:36:26;59.40;;;49.47;;
10586;SDS011;5341;47.606;7.576;2023-01-01T06:38:54;63.15;;;50.70;;
10586;SDS011;5341;47.606;7.576;2023-01-01T06:41:25;63.33;;;50.88;;
10586;SDS011;5341;47.606;7.576;2023-01-01T06:43:55;62.63;;;51.97;;
10586;SDS011;5341;47.606;7.576;2023-01-01T06:46:24;61.17;;;50.30;;
10586;SDS011;5341;47.606;7.576;2023-01-01T06:48:54;60.58;;;49.97;;
10586;SDS011;5341;47.606;7.576;2023-01-01T06:51:25;60.55;;;51.15;;
10586;SDS011;5341;47.606;7.576;2023-01-01T06:53:54;57.67;;;48.08;;
10586;SDS011;5341;47.606;7.576;2023-01-01T06:56:25;61.22;;;49.97;;
10586;SDS011;5341;47.606;7.576;2023-01-01T06:58:53;55.33;;;46.63;;
10586;SDS011;5341;47.606;7.576;2023-01-01T07:01:21;55.13;;;46.05;;
10586;SDS011;5341;47.606;7.576;2023-01-01T07:03:51;58.70;;;46.85;;
10586;SDS011;5341;47.606;7.576;2023-01-01T07:06:20;54.13;;;47.08;;
10586;SDS011;5341;47.606;7.576;2023-01-01T07:08:49;54.70;;;46.80;;
10586;SDS011;5341;47.606;7.576;2023-01-01T07:11:18;53.58;;;46.15;;
10586;SDS011;5341;47.606;7.576;2023-01-01T07:13:45;54.10;;;46.38;;
10586;SDS011;5341;47.606;7.576;2023-01-01T07:16:13;53.08;;;44.97;;
10586;SDS011;5341;47.606;7.576;2023-01-01T07:18:41;55.15;;;44.78;;
10586;SDS011;5341;47.606;7.576;2023-01-01T07:21:21;51.90;;;44.60;;
10586;SDS011;5341;47.606;7.576;2023-01-01T07:23:55;54.13;;;43.65;;
10586;SDS011;5341;47.606;7.576;2023-01-01T07:26:23;50.38;;;43.35;;
10586;SDS011;5341;47.606;7.576;2023-01-01T07:28:51;51.80;;;43.80;;
10586;SDS011;5341;47.606;7.576;2023-01-01T07:31:19;51.17;;;43.65;;
10586;SDS011;5341;47.606;7.576;2023-01-01T07:33:47;51.70;;;42.67;;
10586;SDS011;5341;47.606;7.576;2023-01-01T07:36:15;48.92;;;41.13;;
10586;SDS011;5341;47.606;7.576;2023-01-01T07:38:43;50.03;;;42.42;;
10586;SDS011;5341;47.606;7.576;2023-01-01T07:41:13;50.35;;;43.00;;
10586;SDS011;5341;47.606;7.576;2023-01-01T07:43:42;49.47;;;41.67;;
10586;SDS011;5341;47.606;7.576;2023-01-01T07:46:10;48.58;;;40.83;;
10586;SDS011;5341;47.606;7.576;2023-01-01T07:48:41;50.45;;;41.78;;
10586;SDS011;5341;47.606;7.576;2023-01-01T07:51:12;48.47;;;40.65;;
10586;SDS011;5341;47.606;7.576;2023-01-01T07:53:41;50.35;;;41.28;;
10586;SDS011;5341;47.606;7.576;2023-01-01T07:56:13;45.60;;;39.55;;
10586;SDS011;5341;47.606;7.576;2023-01-01T07:58:42;45.47;;;40.15;;
10586;SDS011;5341;47.606;7.576;2023-01-01T08:01:12;48.38;;;41.28;;
10586;SDS011;5341;47.606;7.576;2023-01-01T08:03:41;51.03;;;42.88;;
10586;SDS011;5341;47.606;7.576;2023-01-01T08:06:11;48.85;;;41.53;;
10586;SDS011;5341;47.606;7.576;2023-01-01T08:08:40;48.05;;;39.70;;
10586;SDS011;5341;47.606;7.576;2023-01-01T08:11:08;49.03;;;41.70;;
10586;SDS011;5341;47.606;7.576;2023-01-01T08:13:37;49.20;;;41.40;;
10586;SDS011;5341;47.606;7.576;2023-01-01T08:16:05;48.47;;;41.80;;
10586;SDS011;5341;47.606;7.576;2023-01-01T08:18:33;47.88;;;40.05;;
10586;SDS011;5341;47.606;7.576;2023-01-01T08:21:02;48.90;;;40.97;;
10586;SDS011;5341;47.606;7.576;2023-01-01T08:23:30;46.22;;;39.15;;
10586;SDS011;5341;47.606;7.576;2023-01-01T08:25:59;45.97;;;38.92;;
10586;SDS011;5341;47.606;7.576;2023-01-01T08:28:28;46.22;;;39.72;;
10586;SDS011;5341;47.606;7.576;2023-01-01T08:30:58;51.03;;;38.25;;
10586;SDS011;5341;47.606;7.576;2023-01-01T08:33:31;45.53;;;37.95;;
10586;SDS011;5341;47.606;7.576;2023-01-01T08:36:05;45.78;;;37.75;;
10586;SDS011;5341;47.606;7.576;2023-01-01T08:38:36;43.03;;;36.33;;
10586;SDS011;5341;47.606;7.576;2023-01-01T08:41:04;44.83;;;36.90;;
10586;SDS011;5341;47.606;7.576;2023-01-01T08:43:32;42.33;;;36.05;;
10586;SDS011;5341;47.606;7.576;2023-01-01T08:46:01;41.50;;;36.25;;
10586;SDS011;5341;47.606;7.576;2023-01-01T08:48:29;43.30;;;37.25;;
10586;SDS011;5341;47.606;7.576;2023-01-01T08:50:58;41.97;;;35.47;;
10586;SDS011;5341;47.606;7.576;2023-01-01T08:53:27;39.53;;;33.97;;
10586;SDS011;5341;47.606;7.576;2023-01-01T08:55:57;42.00;;;34.67;;
10586;SDS011;5341;47.606;7.576;2023-01-01T08:58:25;37.78;;;33.70;;
10586;SDS011;5341;47.606;7.576;2023-01-01T09:00:54;40.03;;;34.28;;
10586;SDS011;5341;47.606;7.576;2023-01-01T09:03:25;40.60;;;35.05;;
10586;SDS011;5341;47.606;7.576;2023-01-01T09:05:54;37.47;;;32.83;;
10586;SDS011;5341;47.606;7.576;2023-01-01T09:08:23;39.55;;;33.90;;
10586;SDS011;5341;47.606;7.576;2023-01-01T09:10:51;39.35;;;33.80;;
10586;SDS011;5341;47.606;7.576;2023-01-01T09:13:20;39.58;;;33.33;;
10586;SDS011;5341;47.606;7.576;2023-01-01T09:15:49;36.67;;;31.88;;
10586;SDS011;5341;47.606;7.576;2023-01-01T09:18:17;37.55;;;33.05;;
10586;SDS011;5341;47.606;7.576;2023-01-01T09:20:46;37.35;;;31.42;;
10586;SDS011;5341;47.606;7.576;2023-01-01T09:23:15;36.70;;;31.73;;
10586;SDS011;5341;47.606;7.576;2023-01-01T09:25:43;33.38;;;29.80;;
10586;SDS011;5341;47.606;7.576;2023-01-01T09:28:11;33.00;;;29.27;;
10586;SDS011;5341;47.606;7.576;2023-01-01T09:30:39;35.13;;;29.25;;
10586;SDS011;5341;47.606;7.576;2023-01-01T09:33:08;33.50;;;28.83;;
10586;SDS011;5341;47.606;7.576;2023-01-01T09:35:36;32.70;;;28.15;;
10586;SDS011;5341;47.606;7.576;2023-01-01T09:38:10;30.58;;;27.27;;
10586;SDS011;5341;47.606;7.576;2023-01-01T09:40:41;31.70;;;28.08;;
10586;SDS011;5341;47.606;7.576;2023-01-01T09:43:21;32.78;;;27.85;;
10586;SDS011;5341;47.606;7.576;2023-01-01T09:45:59;30.35;;;25.20;;
10586;SDS011;5341;47.606;7.576;2023-01-01T09:48:28;29.00;;;25.77;;
10586;SDS011;5341;47.606;7.576;2023-01-01T09:50:57;31.30;;;26.38;;
10586;SDS011;5341;47.606;7.576;2023-01-01T09:53:29;28.08;;;25.02;;
10586;SDS011;5341;47.606;7.576;2023-01-01T09:55:58;27.75;;;24.83;;
10586;SDS011;5341;47.606;7.576;2023-01-01T09:58:28;28.98;;;23.92;;
10586;SDS011;5341;47.606;7.576;2023-01-01T10:01:00;28.50;;;24.60;;
10586;SDS011;5341;47.606;7.576;2023-01-01T10:03:37;29.40;;;23.25;;
10586;SDS011;5341;47.606;7.576;2023-01-01T10:06:12;27.90;;;23.10;;
10586;SDS011;5341;47.606;7.576;2023-01-01T10:11:41;25.25;;;21.05;;
10586;SDS011;5341;47.606;7.576;2023-01-01T10:14:20;26.77;;;21.45;;
10586;SDS011;5341;47.606;7.576;2023-01-01T10:17:02;23.67;;;20.92;;
10586;SDS011;5341;47.606;7.576;2023-01-01T10:19:40;25.95;;;20.27;;
10586;SDS011;5341;47.606;7.576;2023-01-01T10:22:14;23.50;;;20.23;;
10586;SDS011;5341;47.606;7.576;2023-01-01T10:24:48;22.38;;;18.98;;
10586;SDS011;5341;47.606;7.576;2023-01-01T10:27:23;21.38;;;18.50;;
10586;SDS011;5341;47.606;7.576;2023-01-01T10:29:56;21.25;;;17.95;;
10586;SDS011;5341;47.606;7.576;2023-01-01T10:32:27;22.15;;;18.42;;
10586;SDS011;5341;47.606;7.576;2023-01-01T10:34:59;20.67;;;18.25;;
10586;SDS011;5341;47.606;7.576;2023-01-01T10:37:29;19.38;;;16.52;;
10586;SDS011;5341;47.606;7.576;2023-01-01T10:40:03;22.83;;;17.70;;
10586;SDS011;5341;47.606;7.576;2023-01-01T10:42:40;19.90;;;16.80;;
10586;SDS011;5341;47.606;7.576;2023-01-01T10:45:11;21.00;;;15.98;;
10586;SDS011;5341;47.606;7.576;2023-01-01T10:47:40;18.65;;;15.38;;
10586;SDS011;5341;47.606;7.576;2023-01-01T10:50:42;17.77;;;14.80;;
10586;SDS011;5341;47.606;7.576;2023-01-01T10:56:02;17.20;;;14.80;;
10586;SDS011;5341;47.606;7.576;2023-01-01T10:58:36;17.77;;;14.52;;
10586;SDS011;5341;47.606;7.576;2023-01-01T11:01:06;17.20;;;14.73;;
10586;SDS011;5341;47.606;7.576;2023-01-01T11:03:35;16.38;;;14.13;;
10586;SDS011;5341;47.606;7.576;2023-01-01T11:06:05;15.77;;;13.13;;
10586;SDS011;5341;47.606;7.576;2023-01-01T11:08:45;15.77;;;13.65;;
10586;SDS011;5341;47.606;7.576;2023-01-01T11:11:20;16.55;;;14.07;;
10586;SDS011;5341;47.606;7.576;2023-01-01T11:13:53;17.73;;;13.65;;
10586;SDS011;5341;47.606;7.576;2023-01-01T11:16:23;18.02;;;13.38;;
10586;SDS011;5341;47.606;7.576;2023-01-01T11:18:58;15.23;;;12.63;;
10586;SDS011;5341;47.606;7.576;2023-01-01T11:21:28;15.18;;;12.27;;
10586;SDS011;5341;47.606;7.576;2023-01-01T11:24:08;15.30;;;12.70;;
10586;SDS011;5341;47.606;7.576;2023-01-01T11:26:46;15.82;;;11.88;;
10586;SDS011;5341;47.606;7.576;2023-01-01T11:29:23;16.48;;;12.73;;
10586;SDS011;5341;47.606;7.576;2023-01-01T11:31:53;13.73;;;11.70;;
10586;SDS011;5341;47.606;7.576;2023-01-01T11:34:27;15.77;;;11.32;;
10586;SDS011;5341;47.606;7.576;2023-01-01T11:37:11;13.35;;;10.85;;
10586;SDS011;5341;47.606;7.576;2023-01-01T11:39:45;14.27;;;10.15;;
10586;SDS011;5341;47.606;7.576;2023-01-01T11:42:17;13.93;;;10.23;;
10586;SDS011;5341;47.606;7.576;2023-01-01T11:44:47;12.25;;;10.65;;
10586;SDS011;5341;47.606;7.576;2023-01-01T11:47:20;10.95;;;9.45;;
10586;SDS011;5341;47.606;7.576;2023-01-01T11:49:54;11.45;;;9.82;;
10586;SDS011;5341;47.606;7.576;2023-01-01T11:52:26;11.95;;;9.55;;
10586;SDS011;5341;47.606;7.576;2023-01-01T11:55:21;12.70;;;9.57;;
10586;SDS011;5341;47.606;7.576;2023-01-01T11:57:57;14.75;;;9.52;;
10586;SDS011;5341;47.606;7.576;2023-01-01T12:00:30;14.15;;;9.38;;
10586;SDS011;5341;47.606;7.576;2023-01-01T12:03:03;13.27;;;9.10;;
10586;SDS011;5341;47.606;7.576;2023-01-01T12:05:41;12.23;;;9.32;;
10586;SDS011;5341;47.606;7.576;2023-01-01T12:08:15;12.93;;;10.05;;
10586;SDS011;5341;47.606;7.576;2023-01-01T12:10:53;14.30;;;10.73;;
10586;SDS011;5341;47.606;7.576;2023-01-01T12:13:28;13.43;;;9.45;;
10586;SDS011;5341;47.606;7.576;2023-01-01T12:16:05;11.65;;;8.00;;
10586;SDS011;5341;47.606;7.576;2023-01-01T12:18:39;10.50;;;7.88;;
10586;SDS011;5341;47.606;7.576;2023-01-01T12:21:13;9.82;;;7.90;;
10586;SDS011;5341;47.606;7.576;2023-01-01T12:23:48;13.77;;;7.30;;
10586;SDS011;5341;47.606;7.576;2023-01-01T12:26:18;9.95;;;7.32;;
10586;SDS011;5341;47.606;7.576;2023-01-01T12:32:00;9.63;;;7.47;;
10586;SDS011;5341;47.606;7.576;2023-01-01T12:34:34;13.32;;;7.63;;
10586;SDS011;5341;47.606;7.576;2023-01-01T12:37:09;9.73;;;7.03;;
10586;SDS011;5341;47.606;7.576;2023-01-01T12:39:54;9.60;;;7.47;;
10586;SDS011;5341;47.606;7.576;2023-01-01T12:42:40;8.30;;;7.32;;
10586;SDS011;5341;47.606;7.576;2023-01-01T12:45:25;10.23;;;7.38;;
10586;SDS011;5341;47.606;7.576;2023-01-01T12:48:17;9.48;;;6.68;;
10586;SDS011;5341;47.606;7.576;2023-01-01T12:51:03;10.38;;;7.00;;
10586;SDS011;5341;47.606;7.576;2023-01-01T12:53:43;8.77;;;6.43;;
10586;SDS011;5341;47.606;7.576;2023-01-01T12:56:17;7.40;;;6.32;;
10586;SDS011;5341;47.606;7.576;2023-01-01T12:58:50;11.23;;;6.50;;
10586;SDS011;5341;47.606;7.576;2023-01-01T13:01:22;7.13;;;6.03;;
10586;SDS011;5341;47.606;7.576;2023-01-01T13:03:56;8.57;;;6.20;;
10586;SDS011;5341;47.606;7.576;2023-01-01T13:06:30;6.68;;;5.97;;
10586;SDS011;5341;47.606;7.576;2023-01-01T13:09:04;9.13;;;5.80;;
10586;SDS011;5341;47.606;7.576;2023-01-01T13:11:40;9.80;;;6.35;;
10586;SDS011;5341;47.606;7.576;2023-01-01T13:14:10;7.95;;;6.50;;
10586;SDS011;5341;47.606;7.576;2023-01-01T13:16:38;9.05;;;6.85;;
10586;SDS011;5341;47.606;7.576;2023-01-01T13:19:22;10.77;;;6.45;;
10586;SDS011;5341;47.606;7.576;2023-01-01T13:21:53;9.02;;;6.43;;
10586;SDS011;5341;47.606;7.576;2023-01-01T13:24:21;9.63;;;6.70;;
10586;SDS011;5341;47.606;7.576;2023-01-01T13:26:53;9.05;;;6.60;;
10586;SDS011;5341;47.606;7.576;2023-01-01T13:29:30;11.57;;;7.43;;
10586;SDS011;5341;47.606;7.576;2023-01-01T13:32:04;9.20;;;7.43;;
10586;SDS011;5341;47.606;7.576;2023-01-01T13:34:36;7.72;;;6.68;;
10586;SDS011;5341;47.606;7.576;2023-01-01T13:37:27;8.68;;;6.22;;
10586;SDS011;5341;47.606;7.576;2023-01-01T13:40:27;8.63;;;5.80;;
10586;SDS011;5341;47.606;7.576;2023-01-01T13:43:04;7.22;;;5.78;;
10586;SDS011;5341;47.606;7.576;2023-01-01T13:45:43;9.77;;;6.10;;
10586;SDS011;5341;47.606;7.576;2023-01-01T13:48:33;9.00;;;6.25;;
10586;SDS011;5341;47.606;7.576;2023-01-01T13:51:33;9.43;;;6.68;;
10586;SDS011;5341;47.606;7.576;2023-01-01T13:54:37;11.80;;;7.35;;
10586;SDS011;5341;47.606;7.576;2023-01-01T13:57:34;8.75;;;7.15;;
10586;SDS011;5341;47.606;7.576;2023-01-01T14:00:18;8.60;;;6.07;;
10586;SDS011;5341;47.606;7.576;2023-01-01T14:02:51;8.75;;;6.85;;
10586;SDS011;5341;47.606;7.576;2023-01-01T14:05:32;10.70;;;6.93;;
10586;SDS011;5341;47.606;7.576;2023-01-01T14:08:05;9.70;;;6.78;;
10586;SDS011;5341;47.606;7.576;2023-01-01T14:10:34;9.05;;;6.85;;
10586;SDS011;5341;47.606;7.576;2023-01-01T14:13:13;7.32;;;6.45;;
10586;SDS011;5341;47.606;7.576;2023-01-01T14:15:45;8.88;;;6.68;;
10586;SDS011;5341;47.606;7.576;2023-01-01T14:18:19;8.07;;;5.70;;
10586;SDS011;5341;47.606;7.576;2023-01-01T14:20:59;9.60;;;6.18;;
10586;SDS011;5341;47.606;7.576;2023-01-01T14:23:31;9.57;;;5.97;;
10586;SDS011;5341;47.606;7.576;2023-01-01T14:26:05;8.98;;;5.70;;
10586;SDS011;5341;47.606;7.576;2023-01-01T14:28:41;10.45;;;5.70;;
10586;SDS011;5341;47.606;7.576;2023-01-01T14:31:11;7.85;;;5.60;;
10586;SDS011;5341;47.606;7.576;2023-01-01T14:33:42;9.68;;;6.18;;
10586;SDS011;5341;47.606;7.576;2023-01-01T14:36:14;8.25;;;5.55;;
10586;SDS011;5341;47.606;7.576;2023-01-01T14:38:48;8.98;;;6.45;;
10586;SDS011;5341;47.606;7.576;2023-01-01T14:41:18;6.25;;;5.50;;
10586;SDS011;5341;47.606;7.576;2023-01-01T14:43:52;10.40;;;5.75;;
10586;SDS011;5341;47.606;7.576;2023-01-01T14:46:24;9.32;;;6.07;;
10586;SDS011;5341;47.606;7.576;2023-01-01T14:48:54;7.30;;;5.55;;
10586;SDS011;5341;47.606;7.576;2023-01-01T14:51:24;6.18;;;5.25;;
10586;SDS011;5341;47.606;7.576;2023-01-01T14:53:56;7.22;;;5.63;;
10586;SDS011;5341;47.606;7.576;2023-01-01T14:56:26;8.63;;;5.93;;
10586;SDS011;5341;47.606;7.576;2023-01-01T14:59:00;7.60;;;5.80;;
10586;SDS011;5341;47.606;7.576;2023-01-01T15:01:33;6.68;;;5.22;;
10586;SDS011;5341;47.606;7.576;2023-01-01T15:04:14;7.18;;;4.57;;
10586;SDS011;5341;47.606;7.576;2023-01-01T15:06:51;5.18;;;3.80;;
10586;SDS011;5341;47.606;7.576;2023-01-01T15:09:21;5.75;;;3.75;;
10586;SDS011;5341;47.606;7.576;2023-01-01T15:11:50;7.28;;;3.53;;
10586;SDS011;5341;47.606;7.576;2023-01-01T15:14:29;6.88;;;3.92;;
10586;SDS011;5341;47.606;7.576;2023-01-01T15:16:59;5.07;;;4.10;;